Observation data for Wolfforth on 06/20/2019      Previous  Date  Next       Current Mesonet Observations  Soil Data  Daily Summary Page  Observations in Plain Language
KWOS 200500Z 12006KT 21/16 A2986 RMK A01 T02110155  RH  074%=      5-min Rain = 0
KWOS 200505Z 09007KT 21/16 A2986 RMK A01 T02130157  RH  074%=      5-min Rain = 0
KWOS 200510Z 07006KT 21/16 A2987 RMK A01 T02120157  RH  074%=      5-min Rain = 0
KWOS 200515Z 10005KT 21/16 A2987 RMK A01 T02090157  RH  075%=      5-min Rain = 0
KWOS 200520Z 10007KT 21/16 A2987 RMK A01 T02080160  RH  077%=      5-min Rain = 0
KWOS 200525Z 10007KT 21/17 A2987 RMK A01 T02130167  RH  079%=      5-min Rain = 0
KWOS 200530Z 10008KT 22/17 A2987 RMK A01 T02200172  RH  078%=      5-min Rain = 0
KWOS 200535Z 10009KT 22/18 A2987 RMK A01 T02240175  RH  078%=      5-min Rain = 0
KWOS 200540Z 10009KT 23/18 A2987 RMK A01 T02250177  RH  078%=      5-min Rain = 0
KWOS 200545Z 10010KT 23/18 A2987 RMK A01 T02260180  RH  079%=      5-min Rain = 0
KWOS 200550Z 10011KT 23/18 A2987 RMK A01 T02260182  RH  080%=      5-min Rain = 0
KWOS 200555Z 10011KT 23/18 A2987 RMK A01 T02260183  RH  081%=      5-min Rain = 0
KWOS 200600Z 10011KT 23/19 A2987 RMK A01 T02270186  RH  082%=      5-min Rain = 0
KWOS 200605Z 11010KT 23/19 A2987 RMK A01 T02290186  RH  081%=      5-min Rain = 0
KWOS 200610Z 10010KT 23/19 A2987 RMK A01 T02280186  RH  082%=      5-min Rain = 0
KWOS 200615Z 11010KT 23/19 A2987 RMK A01 T02260186  RH  082%=      5-min Rain = 0
KWOS 200620Z 11012KT 23/19 A2987 RMK A01 T02270186  RH  082%=      5-min Rain = 0
KWOS 200625Z 11012KT 23/19 A2987 RMK A01 T02280187  RH  082%=      5-min Rain = 0
KWOS 200630Z 12012G17KT 23/19 A2987 RMK A01 T02270187  RH  082%=      5-min Rain = 0
KWOS 200635Z 12011KT 23/19 A2987 RMK A01 T02270187  RH  082%=      5-min Rain = 0
KWOS 200640Z 12009KT 22/19 A2987 RMK A01 T02240187  RH  084%=      5-min Rain = 0
KWOS 200645Z 12008KT 22/19 A2987 RMK A01 T02230187  RH  084%=      5-min Rain = 0
KWOS 200650Z 13008KT 22/19 A2987 RMK A01 T02210186  RH  085%=      5-min Rain = 0
KWOS 200655Z 12009KT 22/19 A2987 RMK A01 T02210186  RH  085%=      5-min Rain = 0
KWOS 200700Z 12009KT 22/19 A2987 RMK A01 T02200186  RH  086%=      5-min Rain = 0
KWOS 200705Z 12009KT 22/19 A2986 RMK A01 T02190186  RH  086%=      5-min Rain = 0
KWOS 200710Z 12009KT 22/19 A2986 RMK A01 T02170185  RH  087%=      5-min Rain = 0
KWOS 200715Z 12009KT 22/19 A2986 RMK A01 T02170185  RH  087%=      5-min Rain = 0
KWOS 200720Z 12008KT 22/18 A2986 RMK A01 T02150184  RH  087%=      5-min Rain = 0
KWOS 200725Z 12008KT 21/18 A2986 RMK A01 T02130184  RH  088%=      5-min Rain = 0
KWOS 200730Z 12009KT 21/18 A2986 RMK A01 T02120184  RH  089%=      5-min Rain = 0
KWOS 200735Z 11008KT 21/18 A2985 RMK A01 T02100183  RH  089%=      5-min Rain = 0
KWOS 200740Z 11006KT 21/18 A2985 RMK A01 T02090182  RH  089%=      5-min Rain = 0
KWOS 200745Z 11006KT 21/18 A2985 RMK A01 T02080181  RH  089%=      5-min Rain = 0
KWOS 200750Z 12007KT 21/18 A2985 RMK A01 T02050180  RH  090%=      5-min Rain = 0
KWOS 200755Z 12007KT 20/18 A2985 RMK A01 T02030179  RH  091%=      5-min Rain = 0
KWOS 200800Z 12006KT 20/18 A2984 RMK A01 T02020178  RH  091%=      5-min Rain = 0
KWOS 200805Z 13006KT 20/18 A2984 RMK A01 T02020177  RH  090%=      5-min Rain = 0
KWOS 200810Z 13006KT 20/18 A2984 RMK A01 T02020176  RH  089%=      5-min Rain = 0
KWOS 200815Z 13006KT 20/17 A2984 RMK A01 T02020174  RH  089%=      5-min Rain = 0
KWOS 200820Z 13006KT 20/17 A2983 RMK A01 T02000174  RH  089%=      5-min Rain = 0
KWOS 200825Z 13006KT 20/17 A2983 RMK A01 T01980173  RH  090%=      5-min Rain = 0
KWOS 200830Z 13006KT 20/17 A2983 RMK A01 T01970172  RH  090%=      5-min Rain = 0
KWOS 200835Z 13006KT 20/17 A2983 RMK A01 T01960171  RH  090%=      5-min Rain = 0
KWOS 200840Z 13006KT 20/17 A2983 RMK A01 T01950171  RH  090%=      5-min Rain = 0
KWOS 200845Z 14006KT 19/17 A2983 RMK A01 T01930170  RH  091%=      5-min Rain = 0
KWOS 200850Z 15005KT 19/17 A2983 RMK A01 T01930172  RH  092%=      5-min Rain = 0
KWOS 200855Z 15004KT 20/17 A2983 RMK A01 T01950172  RH  091%=      5-min Rain = 0
KWOS 200900Z 15002KT 20/17 A2983 RMK A01 T01960172  RH  091%=      5-min Rain = 0
KWOS 200905Z 15002KT 20/17 A2983 RMK A01 T01970172  RH  090%=      5-min Rain = 0
KWOS 200910Z 15003KT 20/17 A2984 RMK A01 T01960172  RH  090%=      5-min Rain = 0
KWOS 200915Z 16004KT 19/17 A2984 RMK A01 T01920169  RH  091%=      5-min Rain = 0
KWOS 200920Z 16004KT 19/17 A2984 RMK A01 T01890168  RH  092%=      5-min Rain = 0
KWOS 200925Z 16004KT 19/17 A2983 RMK A01 T01880168  RH  093%=      5-min Rain = 0
KWOS 200930Z 17003KT 19/17 A2983 RMK A01 T01890170  RH  093%=      5-min Rain = 0
KWOS 200935Z 17004KT 19/17 A2983 RMK A01 T01890170  RH  093%=      5-min Rain = 0
KWOS 200940Z 17005KT 19/17 A2983 RMK A01 T01870167  RH  093%=      5-min Rain = 0
KWOS 200945Z 17005KT 18/16 A2983 RMK A01 T01840164  RH  093%=      5-min Rain = 0
KWOS 200950Z 17006KT 18/16 A2983 RMK A01 T01830163  RH  093%=      5-min Rain = 0
KWOS 200955Z 17005KT 18/16 A2983 RMK A01 T01830163  RH  093%=      5-min Rain = 0
KWOS 201000Z 17005KT 18/16 A2983 RMK A01 T01820163  RH  093%=      5-min Rain = 0
KWOS 201005Z 17004KT 18/16 A2983 RMK A01 T01810162  RH  093%=      5-min Rain = 0
KWOS 201010Z 16003KT 18/16 A2983 RMK A01 T01810162  RH  093%=      5-min Rain = 0
KWOS 201015Z 15002KT 18/16 A2983 RMK A01 T01790159  RH  092%=      5-min Rain = 0
KWOS 201020Z 15004KT 18/16 A2983 RMK A01 T01780161  RH  094%=      5-min Rain = 0
KWOS 201025Z 17005KT 18/16 A2982 RMK A01 T01770160  RH  094%=      5-min Rain = 0
KWOS 201030Z 17004KT 18/16 A2983 RMK A01 T01780160  RH  093%=      5-min Rain = 0
KWOS 201035Z 17003KT 18/16 A2983 RMK A01 T01790161  RH  093%=      5-min Rain = 0
KWOS 201040Z 14003KT 18/16 A2983 RMK A01 T01760157  RH  093%=      5-min Rain = 0
KWOS 201045Z 15003KT 17/15 A2983 RMK A01 T01700154  RH  095%=      5-min Rain = 0
KWOS 201050Z 18003KT 17/16 A2983 RMK A01 T01690155  RH  096%=      5-min Rain = 0
KWOS 201055Z 18005KT 17/16 A2983 RMK A01 T01740161  RH  096%=      5-min Rain = 0
KWOS 201100Z 17006KT 17/16 A2983 RMK A01 T01730158  RH  095%=      5-min Rain = 0
KWOS 201105Z 17006KT 18/16 A2983 RMK A01 T01750160  RH  096%=      5-min Rain = 0
KWOS 201110Z 17004KT 18/16 A2982 RMK A01 T01770162  RH  095%=      5-min Rain = 0
KWOS 201115Z 18004KT 18/16 A2982 RMK A01 T01770161  RH  095%=      5-min Rain = 0
KWOS 201120Z 18004KT 18/16 A2983 RMK A01 T01780161  RH  094%=      5-min Rain = 0
KWOS 201125Z 18005KT 18/16 A2983 RMK A01 T01750158  RH  094%=      5-min Rain = 0
KWOS 201130Z 18005KT 17/16 A2983 RMK A01 T01730158  RH  095%=      5-min Rain = 0
KWOS 201135Z 18004KT 17/16 A2983 RMK A01 T01740159  RH  096%=      5-min Rain = 0
KWOS 201140Z 16003KT 17/16 A2983 RMK A01 T01720158  RH  096%=      5-min Rain = 0
KWOS 201145Z 15003KT 17/15 A2984 RMK A01 T01680153  RH  096%=      5-min Rain = 0
KWOS 201150Z 16003KT 17/15 A2984 RMK A01 T01660154  RH  097%=      5-min Rain = 0
KWOS 201155Z 18004KT 17/16 A2984 RMK A01 T01690157  RH  097%=      5-min Rain = 0
KWOS 201200Z 17004KT 17/16 A2984 RMK A01 T01710159  RH  097%=      5-min Rain = 0
KWOS 201205Z 15004KT 17/16 A2984 RMK A01 T01700157  RH  096%=      5-min Rain = 0
KWOS 201210Z 16004KT 17/15 A2984 RMK A01 T01670153  RH  096%=      5-min Rain = 0
KWOS 201215Z 17005KT 17/16 A2984 RMK A01 T01730160  RH  097%=      5-min Rain = 0
KWOS 201220Z 18005KT 18/16 A2984 RMK A01 T01780164  RH  096%=      5-min Rain = 0
KWOS 201225Z 19005KT 18/16 A2984 RMK A01 T01820164  RH  093%=      5-min Rain = 0
KWOS 201230Z 21003KT 19/16 A2984 RMK A01 T01850164  RH  092%=      5-min Rain = 0
KWOS 201235Z 21003KT 19/16 A2984 RMK A01 T01850164  RH  092%=      5-min Rain = 0
KWOS 201240Z 21003KT 19/16 A2984 RMK A01 T01860164  RH  092%=      5-min Rain = 0
KWOS 201245Z 26002KT 19/17 A2985 RMK A01 T01880165  RH  091%=      5-min Rain = 0
KWOS 201250Z 24003KT 19/17 A2985 RMK A01 T01920165  RH  088%=      5-min Rain = 0
KWOS 201255Z 20003KT 19/16 A2985 RMK A01 T01940163  RH  086%=      5-min Rain = 0
KWOS 201300Z 23003KT 20/16 A2985 RMK A01 T01970164  RH  086%=      5-min Rain = 0
KWOS 201305Z 23003KT 20/17 A2985 RMK A01 T02000166  RH  084%=      5-min Rain = 0
KWOS 201310Z 24004KT 20/17 A2985 RMK A01 T02020166  RH  084%=      5-min Rain = 0
KWOS 201315Z 21004KT 20/17 A2985 RMK A01 T02040165  RH  082%=      5-min Rain = 0
KWOS 201320Z 21003KT 21/17 A2985 RMK A01 T02070165  RH  081%=      5-min Rain = 0
KWOS 201325Z 19004KT 21/17 A2986 RMK A01 T02090166  RH  080%=      5-min Rain = 0
KWOS 201330Z 16004KT 21/17 A2986 RMK A01 T02120168  RH  080%=      5-min Rain = 0
KWOS 201335Z 21004KT 21/17 A2986 RMK A01 T02140167  RH  078%=      5-min Rain = 0
KWOS 201340Z 21004KT 22/17 A2986 RMK A01 T02150165  RH  077%=      5-min Rain = 0
KWOS 201350Z 20004KT 22/16 A2985 RMK A01 T02190164  RH  074%=      5-min Rain = 0
KWOS 201355Z 20003KT 22/16 A2986 RMK A01 T02230164  RH  073%=      5-min Rain = 0
KWOS 201400Z 19005KT 23/16 A2986 RMK A01 T02270159  RH  069%=      5-min Rain = 0
KWOS 201405Z 20005KT 23/16 A2986 RMK A01 T02310155  RH  065%=      5-min Rain = 0
KWOS 201410Z 21005KT 23/16 A2986 RMK A01 T02320157  RH  066%=      5-min Rain = 0
KWOS 201415Z 20006KT 23/15 A2986 RMK A01 T02340150  RH  062%=      5-min Rain = 0
KWOS 201420Z 19009KT 24/15 A2987 RMK A01 T02380153  RH  061%=      5-min Rain = 0
KWOS 201425Z 19009KT 24/15 A2987 RMK A01 T02390151  RH  061%=      5-min Rain = 0
KWOS 201430Z 20007KT 24/15 A2986 RMK A01 T02400148  RH  059%=      5-min Rain = 0
KWOS 201435Z 20007KT 25/15 A2986 RMK A01 T02460149  RH  057%=      5-min Rain = 0
KWOS 201440Z 21007KT 25/14 A2986 RMK A01 T02510143  RH  054%=      5-min Rain = 0
KWOS 201445Z 21008KT 26/14 A2986 RMK A01 T02550140  RH  051%=      5-min Rain = 0
KWOS 201450Z 22009KT 26/13 A2986 RMK A01 T02600134  RH  048%=      5-min Rain = 0
KWOS 201455Z 23009KT 26/13 A2987 RMK A01 T02630132  RH  046%=      5-min Rain = 0
KWOS 201500Z 25013KT 27/13 A2988 RMK A01 T02710126  RH  042%=      5-min Rain = 0
KWOS 201505Z 23009KT 28/12 A2987 RMK A01 T02750121  RH  040%=      5-min Rain = 0
KWOS 201510Z 25012KT 28/11 A2987 RMK A01 T02840113  RH  036%=      5-min Rain = 0
KWOS 201515Z 24011KT 29/10 A2987 RMK A01 T02910097  RH  031%=      5-min Rain = 0
KWOS 201520Z 25010KT 30/09 A2987 RMK A01 T02970088  RH  028%=      5-min Rain = 0
KWOS 201525Z 23008KT 30/09 A2987 RMK A01 T03000090  RH  028%=      5-min Rain = 0
KWOS 201530Z 24006KT 31/09 A2986 RMK A01 T03050088  RH  027%=      5-min Rain = 0
KWOS 201535Z 25006KT 31/08 A2986 RMK A01 T03090079  RH  024%=      5-min Rain = 0
KWOS 201540Z 23007KT 31/08 A2986 RMK A01 T03120079  RH  024%=      5-min Rain = 0
KWOS 201545Z 21007KT 31/09 A2986 RMK A01 T03140091  RH  026%=      5-min Rain = 0
KWOS 201550Z 21006KT 31/11 A2986 RMK A01 T03140107  RH  029%=      5-min Rain = 0
KWOS 201555Z 19006KT 32/11 A2986 RMK A01 T03150106  RH  029%=      5-min Rain = 0
KWOS 201600Z 20007KT 32/10 A2986 RMK A01 T03150104  RH  028%=      5-min Rain = 0
KWOS 201605Z 19007KT 32/10 A2986 RMK A01 T03180104  RH  028%=      5-min Rain = 0
KWOS 201610Z 20008KT 32/10 A2986 RMK A01 T03180104  RH  028%=      5-min Rain = 0
KWOS 201615Z 20008KT 32/10 A2986 RMK A01 T03210099  RH  026%=      5-min Rain = 0
KWOS 201620Z 20007KT 32/10 A2986 RMK A01 T03230099  RH  026%=      5-min Rain = 0
KWOS 201625Z 20006KT 32/10 A2986 RMK A01 T03240097  RH  026%=      5-min Rain = 0
KWOS 201630Z 20007KT 33/09 A2986 RMK A01 T03280090  RH  024%=      5-min Rain = 0
KWOS 201635Z 20006KT 33/09 A2986 RMK A01 T03300090  RH  024%=      5-min Rain = 0
KWOS 201640Z 22006G11KT 33/09 A2986 RMK A01 T03330085  RH  022%=      5-min Rain = 0
KWOS 201645Z 20006KT 34/09 A2986 RMK A01 T03360085  RH  022%=      5-min Rain = 0
KWOS 201650Z 20006KT 34/08 A2986 RMK A01 T03360083  RH  022%=      5-min Rain = 0
KWOS 201655Z 21006G11KT 34/08 A2985 RMK A01 T03360081  RH  021%=      5-min Rain = 0
KWOS 201700Z 19006KT 34/08 A2985 RMK A01 T03410083  RH  021%=      5-min Rain = 0
KWOS 201705Z 19007KT 34/08 A2985 RMK A01 T03420079  RH  020%=      5-min Rain = 0
KWOS 201710Z 19008KT 35/08 A2985 RMK A01 T03450081  RH  020%=      5-min Rain = 0
KWOS 201715Z 20008KT 35/07 A2986 RMK A01 T03480074  RH  019%=      5-min Rain = 0
KWOS 201720Z 20008KT 35/08 A2985 RMK A01 T03470076  RH  019%=      5-min Rain = 0
KWOS 201725Z 21008KT 35/07 A2985 RMK A01 T03500066  RH  018%=      5-min Rain = 0
KWOS 201730Z 21008KT 35/06 A2985 RMK A01 T03490055  RH  017%=      5-min Rain = 0
KWOS 201735Z 18007KT 35/06 A2985 RMK A01 T03510063  RH  017%=      5-min Rain = 0
KWOS 201740Z 19008KT 36/07 A2985 RMK A01 T03560067  RH  017%=      5-min Rain = 0
KWOS 201745Z 19008KT 35/06 A2985 RMK A01 T03540056  RH  016%=      5-min Rain = 0
KWOS 201750Z 19008KT 35/05 A2985 RMK A01 T03530048  RH  015%=      5-min Rain = 0
KWOS 201755Z 17008KT 36/06 A2985 RMK A01 T03580057  RH  016%=      5-min Rain = 0
KWOS 201800Z 20008KT 36/06 A2985 RMK A01 T03610063  RH  016%=      5-min Rain = 0
KWOS 201805Z 19009KT 36/07 A2985 RMK A01 T03590067  RH  017%=      5-min Rain = 0
KWOS 201810Z 18010G15KT 36/07 A2985 RMK A01 T03620065  RH  017%=      5-min Rain = 0
KWOS 201815Z 18011G16KT 37/06 A2985 RMK A01 T03650058  RH  015%=      5-min Rain = 0
KWOS 201820Z 19011KT 37/05 A2985 RMK A01 T03650052  RH  015%=      5-min Rain = 0
KWOS 201825Z 20011G16KT 37/04 A2985 RMK A01 T03690043  RH  014%=      5-min Rain = 0
KWOS 201830Z 20012KT 37/04 A2985 RMK A01 T03680038  RH  013%=      5-min Rain = 0
KWOS 201835Z 20011G16KT 37/03 A2984 RMK A01 T03720030  RH  012%=      5-min Rain = 0
KWOS 201840Z 20012KT 37/03 A2984 RMK A01 T03730030  RH  012%=      5-min Rain = 0
KWOS 201845Z 20012G17KT 38/03 A2984 RMK A01 T03750033  RH  012%=      5-min Rain = 0
KWOS 201850Z 20013G19KT 37/03 A2984 RMK A01 T03730027  RH  012%=      5-min Rain = 0
KWOS 201855Z 20013G18KT 38/03 A2984 RMK A01 T03750026  RH  012%=      5-min Rain = 0
KWOS 201900Z 20013KT 38/03 A2983 RMK A01 T03790027  RH  011%=      5-min Rain = 0
KWOS 201905Z 20012G19KT 38/03 A2983 RMK A01 T03790028  RH  012%=      5-min Rain = 0
KWOS 201910Z 19015G20KT 38/02 A2983 RMK A01 T03790023  RH  011%=      5-min Rain = 0
KWOS 201915Z 20015KT 38/02 A2983 RMK A01 T03820022  RH  011%=      5-min Rain = 0
KWOS 201920Z 19015G21KT 38/02 A2983 RMK A01 T03820018  RH  011%=      5-min Rain = 0
KWOS 201925Z 20014G20KT 38/02 A2983 RMK A01 T03840023  RH  011%=      5-min Rain = 0
KWOS 201930Z 19015G20KT 39/01 A2983 RMK A01 T03850014  RH  010%=      5-min Rain = 0
KWOS 201935Z 20017G22KT 38/01 A2982 RMK A01 T03840006  RH  010%=      5-min Rain = 0
KWOS 201940Z 21017G22KT 39/01 A2982 RMK A01 T03860009  RH  010%=      5-min Rain = 0
KWOS 201945Z 20016G22KT 38/01 A2982 RMK A01 T03840007  RH  010%=      5-min Rain = 0
KWOS 201950Z 20019G24KT 38/01 A2982 RMK A01 T03840005  RH  009%=      5-min Rain = 0
KWOS 201955Z 20017G22KT 38/01 A2982 RMK A01 T03840009  RH  010%=      5-min Rain = 0
KWOS 202000Z 20016G22KT 38/01 A2982 RMK A01 T03840009  RH  010%=      5-min Rain = 0
KWOS 202005Z 21017G26KT 39/01 A2981 RMK A01 T03850005  RH  009%=      5-min Rain = 0
KWOS 202010Z 22019KT 39/01 A2981 RMK A01 T03880006  RH  009%=      5-min Rain = 0
KWOS 202015Z 22016G24KT 39/01 A2981 RMK A01 T03910005  RH  009%=      5-min Rain = 0
KWOS 202020Z 20015G21KT 39/00 A2981 RMK A01 T03890001  RH  009%=      5-min Rain = 0
KWOS 202025Z 20016G26KT 39/01 A2981 RMK A01 T03890008  RH  009%=      5-min Rain = 0
KWOS 202030Z 20014G21KT 39/01 A2981 RMK A01 T03890005  RH  009%=      5-min Rain = 0
KWOS 202035Z 23013G20KT 39/M01 A2981 RMK A01 T03921008  RH  008%=      5-min Rain = 0
KWOS 202040Z 20014G21KT 39/M00 A298 RMK A01 T03901003  RH  009%=      5-min Rain = 0
KWOS 202045Z 21017G23KT 39/M01 A298 RMK A01 T03871005  RH  009%=      5-min Rain = 0
KWOS 202050Z 21015G21KT 39/M01 A298 RMK A01 T03901007  RH  008%=      5-min Rain = 0
KWOS 202055Z 21012G21KT 39/M00 A298 RMK A01 T03881003  RH  009%=      5-min Rain = 0
KWOS 202100Z 19015G22KT 39/M00 A2979 RMK A01 T03881002  RH  009%=      5-min Rain = 0
KWOS 202105Z 18017G22KT 39/00 A2979 RMK A01 T038700-0  RH  009%=      5-min Rain = 0
KWOS 202110Z 20019G26KT 39/M00 A2979 RMK A01 T03911001  RH  009%=      5-min Rain = 0
KWOS 202115Z 21015G20KT 39/M01 A2979 RMK A01 T03891006  RH  008%=      5-min Rain = 0
KWOS 202120Z 21012G17KT 39/M01 A2979 RMK A01 T03881005  RH  009%=      5-min Rain = 0
KWOS 202125Z 22016G25KT 39/M01 A2979 RMK A01 T03921008  RH  008%=      5-min Rain = 0
KWOS 202130Z 21018KT 39/M00 A2978 RMK A01 T03921003  RH  009%=      5-min Rain = 0
KWOS 202135Z 22017G25KT 39/M01 A2978 RMK A01 T03911009  RH  008%=      5-min Rain = 0
KWOS 202140Z 20013G18KT 39/M00 A2978 RMK A01 T03881003  RH  009%=      5-min Rain = 0
KWOS 202145Z 20013G21KT 39/00 A2978 RMK A01 T03910001  RH  009%=      5-min Rain = 0
KWOS 202150Z 20011G16KT 39/M00 A2978 RMK A01 T03871004  RH  009%=      5-min Rain = 0
KWOS 202155Z 20015G21KT 39/M00 A2978 RMK A01 T03861003  RH  009%=      5-min Rain = 0
KWOS 202200Z 20012G18KT 39/M00 A2978 RMK A01 T03911001  RH  009%=      5-min Rain = 0
KWOS 202205Z 20013G21KT 39/00 A2978 RMK A01 T03890003  RH  009%=      5-min Rain = 0
KWOS 202210Z 20015G20KT 38/M00 A2978 RMK A01 T03821003  RH  009%=      5-min Rain = 0
KWOS 202215Z 21014G21KT 39/00 A2977 RMK A01 T03900001  RH  009%=      5-min Rain = 0
KWOS 202220Z 20019G26KT 39/M00 A2977 RMK A01 T03901002  RH  009%=      5-min Rain = 0
KWOS 202225Z 21014G22KT 39/M01 A2977 RMK A01 T03891009  RH  008%=      5-min Rain = 0
KWOS 202230Z 20015G23KT 39/M00 A2977 RMK A01 T03891001  RH  009%=      5-min Rain = 0
KWOS 202235Z 22017G22KT 39/M01 A2977 RMK A01 T03921006  RH  008%=      5-min Rain = 0
KWOS 202240Z 22014G20KT 39/M01 A2977 RMK A01 T03891011  RH  008%=      5-min Rain = 0
KWOS 202245Z 22016KT 39/M01 A2977 RMK A01 T03891007  RH  008%=      5-min Rain = 0
KWOS 202250Z 22013KT 38/M01 A2977 RMK A01 T03811014  RH  008%=      5-min Rain = 0
KWOS 202255Z 21014G22KT 38/M01 A2977 RMK A01 T03821006  RH  009%=      5-min Rain = 0
KWOS 202300Z 19017KT 38/M00 A2977 RMK A01 T03841001  RH  009%=      5-min Rain = 0
KWOS 202305Z 19014G20KT 38/00 A2977 RMK A01 T03840002  RH  009%=      5-min Rain = 0
KWOS 202310Z 20012KT 38/M00 A2976 RMK A01 T03841002  RH  009%=      5-min Rain = 0
KWOS 202315Z 21016G23KT 39/M00 A2976 RMK A01 T03851001  RH  009%=      5-min Rain = 0
KWOS 202320Z 21016G21KT 38/M01 A2976 RMK A01 T03811009  RH  009%=      5-min Rain = 0
KWOS 202325Z 21014G19KT 38/M01 A2976 RMK A01 T03781005  RH  009%=      5-min Rain = 0
KWOS 202330Z 20012G17KT 37/00 A2976 RMK A01 T03740001  RH  010%=      5-min Rain = 0
KWOS 202335Z 19016G21KT 38/M00 A2976 RMK A01 T03751004  RH  009%=      5-min Rain = 0
KWOS 202340Z 19015G21KT 38/M00 A2976 RMK A01 T03761004  RH  009%=      5-min Rain = 0
KWOS 202345Z 20017G23KT 38/00 A2976 RMK A01 T03770001  RH  010%=      5-min Rain = 0
KWOS 202350Z 20018G23KT 38/M00 A2976 RMK A01 T03781001  RH  009%=      5-min Rain = 0
KWOS 202355Z 20018KT 38/M01 A2976 RMK A01 T03751007  RH  009%=      5-min Rain = 0
KWOS 210000Z 20016G22KT 38/M00 A2976 RMK A01 T03751004  RH  009%=      5-min Rain = 0
KWOS 210005Z 20015KT 38/M00 A2976 RMK A01 T03751004  RH  009%=      5-min Rain = 0
KWOS 210010Z 19015KT 37/M00 A2976 RMK A01 T03741002  RH  009%=      5-min Rain = 0
KWOS 210015Z 19013KT 37/00 A2976 RMK A01 T03720001  RH  010%=      5-min Rain = 0
KWOS 210020Z 19011KT 37/00 A2976 RMK A01 T03680004  RH  010%=      5-min Rain = 0
KWOS 210025Z 19010KT 36/00 A2976 RMK A01 T03610002  RH  010%=      5-min Rain = 0
KWOS 210030Z 19012KT 36/00 A2976 RMK A01 T03630002  RH  010%=      5-min Rain = 0
KWOS 210035Z 19012KT 36/00 A2976 RMK A01 T03620004  RH  011%=      5-min Rain = 0
KWOS 210040Z 19012KT 36/01 A2975 RMK A01 T03620005  RH  011%=      5-min Rain = 0
KWOS 210045Z 19012KT 36/01 A2975 RMK A01 T03610014  RH  011%=      5-min Rain = 0
KWOS 210050Z 19012KT 36/01 A2975 RMK A01 T03610011  RH  011%=      5-min Rain = 0
KWOS 210055Z 19011KT 36/01 A2975 RMK A01 T03600008  RH  011%=      5-min Rain = 0
KWOS 210100Z 19011KT 36/01 A2976 RMK A01 T03580009  RH  011%=      5-min Rain = 0
KWOS 210105Z 19011KT 36/01 A2976 RMK A01 T03550013  RH  012%=      5-min Rain = 0
KWOS 210110Z 20009KT 35/02 A2976 RMK A01 T03510024  RH  013%=      5-min Rain = 0
KWOS 210115Z 21009KT 35/03 A2976 RMK A01 T03460026  RH  014%=      5-min Rain = 0
KWOS 210120Z 21008KT 34/02 A2976 RMK A01 T03420022  RH  014%=      5-min Rain = 0
KWOS 210125Z 22008KT 34/02 A2976 RMK A01 T03380024  RH  014%=      5-min Rain = 0
KWOS 210130Z 22008KT 33/03 A2976 RMK A01 T03310029  RH  015%=      5-min Rain = 0
KWOS 210135Z 22007KT 33/03 A2976 RMK A01 T03260033  RH  016%=      5-min Rain = 0
KWOS 210140Z 21008KT 32/03 A2976 RMK A01 T03190032  RH  017%=      5-min Rain = 0
KWOS 210145Z 21007KT 31/04 A2976 RMK A01 T03120035  RH  018%=      5-min Rain = 0
KWOS 210150Z 21007KT 31/04 A2976 RMK A01 T03060039  RH  019%=      5-min Rain = 0
KWOS 210155Z 20008KT 30/04 A2976 RMK A01 T03010041  RH  019%=      5-min Rain = 0
KWOS 210200Z 20008KT 30/04 A2976 RMK A01 T03020040  RH  019%=      5-min Rain = 0
KWOS 210205Z 20009KT 30/05 A2976 RMK A01 T02980046  RH  021%=      5-min Rain = 0
KWOS 210210Z 20009KT 30/05 A2976 RMK A01 T02950050  RH  022%=      5-min Rain = 0
KWOS 210215Z 20009KT 29/05 A2976 RMK A01 T02930054  RH  023%=      5-min Rain = 0
KWOS 210220Z 20009KT 29/06 A2976 RMK A01 T02900057  RH  023%=      5-min Rain = 0
KWOS 210225Z 20009KT 28/06 A2977 RMK A01 T02840058  RH  024%=      5-min Rain = 0
KWOS 210230Z 19009KT 29/06 A2977 RMK A01 T02850058  RH  024%=      5-min Rain = 0
KWOS 210235Z 19008KT 29/06 A2977 RMK A01 T02860062  RH  025%=      5-min Rain = 0
KWOS 210240Z 19008KT 28/06 A2977 RMK A01 T02800064  RH  026%=      5-min Rain = 0
KWOS 210245Z 19008KT 28/06 A2977 RMK A01 T02790059  RH  025%=      5-min Rain = 0
KWOS 210250Z 19008KT 28/06 A2977 RMK A01 T02780056  RH  025%=      5-min Rain = 0
KWOS 210255Z 20008KT 27/06 A2977 RMK A01 T02710060  RH  027%=      5-min Rain = 0
KWOS 210300Z 20008KT 26/06 A2977 RMK A01 T02630064  RH  029%=      5-min Rain = 0
KWOS 210305Z 20008KT 26/06 A2978 RMK A01 T02620061  RH  028%=      5-min Rain = 0
KWOS 210310Z 20009KT 26/06 A2978 RMK A01 T02630055  RH  027%=      5-min Rain = 0
KWOS 210315Z 20010KT 26/05 A2978 RMK A01 T02630052  RH  026%=      5-min Rain = 0
KWOS 210320Z 20010KT 26/05 A2978 RMK A01 T02610051  RH  027%=      5-min Rain = 0
KWOS 210325Z 20010KT 26/05 A2978 RMK A01 T02600048  RH  026%=      5-min Rain = 0
KWOS 210330Z 20010KT 26/04 A2978 RMK A01 T02600044  RH  025%=      5-min Rain = 0
KWOS 210335Z 21011KT 26/04 A2979 RMK A01 T02600040  RH  025%=      5-min Rain = 0
KWOS 210340Z 21011KT 26/04 A2979 RMK A01 T02610035  RH  024%=      5-min Rain = 0
KWOS 210345Z 21010KT 26/03 A2979 RMK A01 T02590033  RH  024%=      5-min Rain = 0
KWOS 210350Z 21010KT 26/03 A2979 RMK A01 T02550033  RH  024%=      5-min Rain = 0
KWOS 210355Z 21009KT 25/03 A2979 RMK A01 T02520034  RH  025%=      5-min Rain = 0
KWOS 210400Z 21009KT 25/04 A2979 RMK A01 T02470035  RH  026%=      5-min Rain = 0
KWOS 210405Z 21009KT 24/04 A2979 RMK A01 T02440035  RH  026%=      5-min Rain = 0
KWOS 210410Z 21009KT 24/04 A2979 RMK A01 T02430035  RH  026%=      5-min Rain = 0
KWOS 210415Z 21009KT 24/04 A2979 RMK A01 T02420035  RH  027%=      5-min Rain = 0
KWOS 210420Z 22009KT 24/04 A2979 RMK A01 T02420036  RH  027%=      5-min Rain = 0
KWOS 210425Z 22011KT 24/03 A2979 RMK A01 T02440034  RH  026%=      5-min Rain = 0
KWOS 210430Z 22011KT 25/03 A2979 RMK A01 T02460029  RH  025%=      5-min Rain = 0
KWOS 210435Z 22010KT 25/03 A2979 RMK A01 T02470027  RH  024%=      5-min Rain = 0
KWOS 210440Z 22011KT 25/02 A2979 RMK A01 T02480024  RH  024%=      5-min Rain = 0
KWOS 210445Z 22011KT 25/02 A2979 RMK A01 T02490023  RH  023%=      5-min Rain = 0
KWOS 210450Z 22011KT 25/02 A2979 RMK A01 T02480023  RH  023%=      5-min Rain = 0
KWOS 210455Z 22010KT 25/02 A2979 RMK A01 T02460023  RH  024%=      5-min Rain = 0

Page generated in 0.0094 seconds.